M I D A S
Marine Information and Data Acquisition System
Tripno 435 of the Zeeleeuw from 2003-02-24 07:24:40 to 2003-02-24 15:38:59
Back to CruiseResearch ActivitiesStationsMapUnderway DataData graphs

EquipmentUnitsComments
TimeDGPSUTC
LatitudeDGPSDM.mWGS84
LongitudeDGPSDM.mWGS84
SpeedMeteo Stationm/sRelative wind speed
DirectionMeteo StationdegRelative wind direction
TemperatureMeteo Stationdeg CelciusAir temperature
PressureMeteo StationPaAtmospheric pressure
HumidityMeteo Station%Relative humidity
Missing or incorrect values are displayed as -999
Metereological data collected by the RV Zeeleeuw from 2003-02-24 07:24:40 to 2003-02-24 15:38:59
Time Latitude Longitude Speed Direction Temperature Pressure Humidity
2003-02-24 07:25 51°13.593 2°56.105 3.2 203 5.5 102600 78
2003-02-24 07:26 51°13.607 2°56.051 1.5 139 5.5 102600 78
2003-02-24 07:27 51°13.644 2°55.935 1.9 139 5.5 102600 78
2003-02-24 07:28 51°13.677 2°55.822 0.7 105 5.5 102600 78
2003-02-24 07:29 51°13.692 2°55.739 1.4 149 5.5 102600 78
2003-02-24 07:30 51°13.702 2°55.74 2.5 127 5.5 102600 78
2003-02-24 07:31 51°13.74 2°55.737 0.6 94 5.4 102600 78
2003-02-24 07:32 51°13.809 2°55.659 1.4 268 5.4 102610 78
2003-02-24 07:33 51°13.91 2°55.57 1.4 258 5.5 102610 78
2003-02-24 07:34 51°14.03 2°55.488 0.7 232 5.5 102610 78
2003-02-24 07:35 51°14.152 2°55.395 0.8 253 5.5 102610 78
2003-02-24 07:36 51°14.263 2°55.262 1.2 268 5.6 102610 78
2003-02-24 07:37 51°14.355 2°55.09 2.1 290 5.6 102600 78
2003-02-24 07:38 51°14.418 2°54.857 5.1 291 5.7 102600 78
2003-02-24 07:39 51°14.384 2°54.539 9 271 5.8 102590 78
2003-02-24 07:40 51°14.307 2°54.231 8.2 278 6.1 102580 77
2003-02-24 07:41 51°14.236 2°53.924 9.2 274 6.2 102580 76
2003-02-24 07:42 51°14.147 2°53.617 9.1 270 6.1 102580 75
2003-02-24 07:43 51°14.037 2°53.308 10.4 281 6.1 102570 75
2003-02-24 07:44 51°13.926 2°52.996 10.1 272 6.2 102570 75
2003-02-24 07:45 51°13.812 2°52.687 9.9 272 6.2 102570 74
2003-02-24 07:46 51°13.7 2°52.378 10.1 272 6.2 102570 74
2003-02-24 07:47 51°13.587 2°52.069 9.8 271 6.2 102570 74
2003-02-24 07:48 51°13.474 2°51.766 9.6 269 6.2 102570 74
2003-02-24 07:49 51°13.36 2°51.45 9.8 268 6.1 102580 74
2003-02-24 07:50 51°13.247 2°51.14 8.9 268 6 102580 74
2003-02-24 07:51 51°13.133 2°50.83 9.2 272 5.8 102580 75
2003-02-24 07:52 51°13.02 2°50.518 8.8 271 5.6 102580 76
2003-02-24 07:53 51°12.907 2°50.204 8.6 270 5.5 102580 76
2003-02-24 07:54 51°12.796 2°49.892 8.9 266 5.4 102580 77
2003-02-24 07:55 51°12.684 2°49.581 8.8 267 5.3 102590 78
2003-02-24 07:56 51°12.572 2°49.27 8.2 267 5.4 102590 78
2003-02-24 07:57 51°12.459 2°48.958 8.3 269 5.3 102590 78
2003-02-24 07:58 51°12.345 2°48.645 8.3 268 5.2 102590 78
2003-02-24 07:59 51°12.241 2°48.322 8.9 277 5.2 102580 79
2003-02-24 08:00 51°12.139 2°47.996 9.4 278 5.2 102580 79
2003-02-24 08:01 51°12.036 2°47.67 9.7 277 5.4 102570 79
2003-02-24 08:02 51°11.934 2°47.349 9.8 277 5.5 102570 79
2003-02-24 08:03 51°11.834 2°47.028 10.7 273 5.5 102560 78
2003-02-24 08:04 51°11.731 2°46.706 11.1 278 5.5 102560 78
2003-02-24 08:05 51°11.632 2°46.376 9.6 276 5.5 102560 78
2003-02-24 08:06 51°11.55 2°46.035 9 273 5.4 102570 78
2003-02-24 08:07 51°11.469 2°45.694 8.7 271 5.3 102570 78
2003-02-24 08:08 51°11.384 2°45.356 9.1 272 5.2 102570 79
2003-02-24 08:09 51°11.299 2°45.022 9.1 272 5.2 102570 79
2003-02-24 08:10 51°11.212 2°44.677 9 270 5.3 102570 79
2003-02-24 08:11 51°11.124 2°44.337 8.3 273 5.2 102570 79
2003-02-24 08:12 51°11.038 2°43.996 8.7 275 5.2 102570 79
2003-02-24 08:13 51°10.951 2°43.656 8.5 275 5.2 102570 80
2003-02-24 08:14 51°10.865 2°43.316 8 269 5.2 102570 80
2003-02-24 08:15 51°10.778 2°42.977 8.6 272 5.2 102570 80
2003-02-24 08:16 51°10.692 2°42.638 8.3 271 5.3 102570 80
2003-02-24 08:17 51°10.605 2°42.299 8.5 271 5.3 102570 80
2003-02-24 08:18 51°10.518 2°41.961 8.6 274 5.3 102570 80
2003-02-24 08:19 51°10.432 2°41.62 8.8 278 5.3 102570 80
2003-02-24 08:20 51°10.346 2°41.277 8.9 275 5.4 102560 80
2003-02-24 08:21 51°10.259 2°40.934 9 276 5.5 102560 79
2003-02-24 08:22 51°10.173 2°40.589 9.7 273 5.6 102570 79
2003-02-24 08:23 51°10.087 2°40.242 9.9 269 5.6 102560 78
2003-02-24 08:24 51°10 2°39.895 9.6 269 5.6 102570 78
2003-02-24 08:25 51°9.914 2°39.546 9.4 269 5.6 102570 78
2003-02-24 08:26 51°9.834 2°39.194 9.3 273 5.5 102570 78
2003-02-24 08:27 51°9.753 2°38.843 9.4 272 5.5 102570 78
2003-02-24 08:28 51°9.672 2°38.493 9.3 270 5.6 102570 79
2003-02-24 08:29 51°9.593 2°38.143 8.9 271 5.6 102570 79
2003-02-24 08:30 51°9.521 2°37.788 9.3 269 5.6 102570 79
2003-02-24 08:31 51°9.447 2°37.432 9.8 274 5.6 102570 79
2003-02-24 08:32 51°9.374 2°37.076 9.2 274 5.6 102570 79
2003-02-24 08:33 51°9.301 2°36.719 8.4 274 5.5 102570 79
2003-02-24 08:34 51°9.23 2°36.379 9 280 5.5 102570 79
2003-02-24 08:35 51°9.163 2°36.044 8.5 277 5.5 102570 79
2003-02-24 08:36 51°9.1 2°35.721 7.9 285 5.6 102570 79
2003-02-24 08:37 51°9.049 2°35.491 6.4 296 5.6 102580 79
2003-02-24 08:38 51°9.037 2°35.31 4.1 301 5.7 102580 79
2003-02-24 08:39 51°9.025 2°35.178 2.3 302 5.7 102580 79
2003-02-24 08:40 51°9.026 2°35.065 0.8 327 5.8 102580 79
2003-02-24 08:41 51°9.033 2°35.019 5.9   5.8 102580 79
2003-02-24 08:42 51°9.041 2°35.002 5.5 7 5.9 102580 78
2003-02-24 08:43 51°9.051 2°34.982 7.7   5.9 102580 78
2003-02-24 08:44 51°9.063 2°34.959 6.5 5 6 102580 78
2003-02-24 08:45 51°9.073 2°34.934 2.1 344 6.1 102570 77
2003-02-24 08:46 51°9.081 2°34.909 2.1 340 6.1 102580 77
2003-02-24 08:47 51°9.088 2°34.884 1 320 6 102580 77
2003-02-24 08:48 51°9.094 2°34.859 1.5 311 6 102580 77
2003-02-24 08:49 51°9.097 2°34.816 1.9 334 6 102570 77
2003-02-24 08:50 51°9.113 2°34.721 4.3 3 6 102580 77
2003-02-24 08:51 51°9.165 2°34.649 4.5 58 6 102580 77
2003-02-24 08:52 51°9.227 2°34.642 5.4 112 6.1 102580 77
2003-02-24 08:53 51°9.279 2°34.691 6.1 149 6.1 102580 76
2003-02-24 08:54 51°9.311 2°34.774 7.7 166 6.1 102580 76
2003-02-24 08:55 51°9.33 2°34.858 7.2 174 6 102570 77
2003-02-24 08:56 51°9.349 2°34.943 7.6 165 6 102580 77
2003-02-24 08:57 51°9.369 2°35.025 7.8 165 6 102580 77
2003-02-24 08:58 51°9.388 2°35.108 7.3 172 6 102580 77
2003-02-24 08:59 51°9.41 2°35.192 7.1 165 6 102580 77
2003-02-24 09:00 51°9.434 2°35.274 6.7 167 6 102580 77
2003-02-24 09:01 51°9.456 2°35.358 6.5 176 6 102570 77
2003-02-24 09:02 51°9.472 2°35.442 6.5 179 5.9 102570 77
2003-02-24 09:03 51°9.491 2°35.526 7.1 175 5.9 102580 78
2003-02-24 09:04 51°9.518 2°35.604 7.1 168 5.9 102580 78
2003-02-24 09:05 51°9.546 2°35.681 8 166 5.9 102570 78
2003-02-24 09:06 51°9.574 2°35.758 7.2 163 5.9 102570 78
2003-02-24 09:07 51°9.598 2°35.837 7.6 173 5.9 102580 78
2003-02-24 09:08 51°9.62 2°35.916 7 168 5.9 102580 78
2003-02-24 09:09 51°9.645 2°35.993 8 164 5.9 102580 77
2003-02-24 09:10 51°9.67 2°36.071 7.4 164 5.9 102580 77
2003-02-24 09:11 51°9.69 2°36.15 6.7 173 5.9 102580 77
2003-02-24 09:12 51°9.71 2°36.228 7.2 170 5.9 102580 77
2003-02-24 09:13 51°9.735 2°36.305 6.6 165 5.9 102580 78
2003-02-24 09:14 51°9.757 2°36.383 7.5 164 5.9 102580 78
2003-02-24 09:15 51°9.775 2°36.461 7.3 166 5.9 102580 78
2003-02-24 09:16 51°9.794 2°36.538 7.8 163 6 102570 77
2003-02-24 09:17 51°9.816 2°36.615 6.8 166 6 102580 77
2003-02-24 09:18 51°9.836 2°36.691 6.5 167 6 102580 77
2003-02-24 09:19 51°9.854 2°36.768 7.6 166 6 102570 77
2003-02-24 09:20 51°9.871 2°36.846 7.4 170 6 102580 77
2003-02-24 09:21 51°9.877 2°36.925 6.4 184 6 102570 77
2003-02-24 09:22 51°9.871 2°36.982 6.7 194 6 102570 77
2003-02-24 09:23 51°9.865 2°37.019 6.7 192 6.1 102560 77
2003-02-24 09:24 51°9.86 2°37.047 7 194 6.1 102560 77
2003-02-24 09:25 51°9.857 2°37.07 6.8 193 6.1 102560 77
2003-02-24 09:26 51°9.84 2°37.114 8.2 220 6.2 102550 76
2003-02-24 09:27 51°9.794 2°37.139 9 245 6.2 102560 76
2003-02-24 09:28 51°9.738 2°37.112 8.7 278 6.4 102560 76
2003-02-24 09:29 51°9.701 2°37.035 5.9 305 6.5 102560 76
2003-02-24 09:30 51°9.69 2°36.94 1.5 316 6.5 102560 75
2003-02-24 09:31 51°9.695 2°36.844 1.7 338 6.4 102570 76
2003-02-24 09:32 51°9.709 2°36.752 4.6 350 6.4 102560 76
2003-02-24 09:33 51°9.729 2°36.66 4.1 354 6.4 102570 76
2003-02-24 09:34 51°9.748 2°36.567 2.7 349 6.4 102570 76
2003-02-24 09:35 51°9.766 2°36.473 3.2 347 6.4 102560 76
2003-02-24 09:36 51°9.784 2°36.378 3.6 343 6.4 102560 76
2003-02-24 09:37 51°9.808 2°36.285 4.2 3 6.4 102560 76
2003-02-24 09:38 51°9.836 2°36.195 4.3 357 6.5 102560 76
2003-02-24 09:39 51°9.861 2°36.104 4.4 358 6.5 102560 76
2003-02-24 09:40 51°9.882 2°36.011 4.6 355 6.6 102560 76
2003-02-24 09:41 51°9.899 2°35.916 3.9 348 6.6 102560 75
2003-02-24 09:42 51°9.919 2°35.821 4.6 356 6.6 102560 75
2003-02-24 09:43 51°9.946 2°35.732 4.8 9 6.6 102560 75
2003-02-24 09:44 51°9.98 2°35.651 4.6 15 6.7 102560 75
2003-02-24 09:45 51°10.017 2°35.577 4.7 26 6.7 102560 75
2003-02-24 09:46 51°10.058 2°35.506 4.7 29 6.7 102560 75
2003-02-24 09:47 51°10.105 2°35.44 4.5 318 6.7 102560 75
2003-02-24 09:48 51°10.159 2°35.395 4.5 74 6.9 102560 75
2003-02-24 09:49 51°10.217 2°35.381 4.6 102 6.9 102560 74
2003-02-24 09:50 51°10.272 2°35.394 4.9 120 6.9 102560 74
2003-02-24 09:51 51°10.325 2°35.418 5.3 125 6.8 102560 75
2003-02-24 09:52 51°10.374 2°35.449 4.9 123 6.8 102560 75
2003-02-24 09:53 51°10.422 2°35.485 5.1 130 6.7 102560 75
2003-02-24 09:54 51°10.467 2°35.526 5.4 142 6.7 102560 75
2003-02-24 09:55 51°10.498 2°35.572 5.8 157 6.7 102570 76
2003-02-24 09:56 51°10.514 2°35.604 5.8 160 6.6 102570 76
2003-02-24 09:57 51°10.526 2°35.627 6.2 167 6.6 102570 76
2003-02-24 09:58 51°10.536 2°35.644 6.2 167 6.6 102560 77
2003-02-24 09:59 51°10.591 2°35.774 7.1 181 6.5 102560 77
2003-02-24 10:00 51°10.709 2°36.033 7.8 192 6.6 102550 77
2003-02-24 10:01 51°10.846 2°36.309 7.5 193 6.6 102540 77
2003-02-24 10:02 51°10.984 2°36.587 8.3 193 6.6 102540 77
2003-02-24 10:03 51°11.123 2°36.866 8.1 188 6.6 102540 76
2003-02-24 10:04 51°11.264 2°37.14 7.9 191 6.6 102540 76
2003-02-24 10:05 51°11.407 2°37.412 7.2 189 6.7 102540 76
2003-02-24 10:06 51°11.549 2°37.686 7.5 191 6.8 102550 75
2003-02-24 10:07 51°11.689 2°37.961 7.9 197 6.7 102550 75
2003-02-24 10:08 51°11.832 2°38.233 8.3 195 6.7 102540 76
2003-02-24 10:09 51°11.971 2°38.503 7.8 196 6.6 102550 76
2003-02-24 10:10 51°12.111 2°38.771 7.8 198 6.7 102550 76
2003-02-24 10:11 51°12.249 2°39.037 7.6 198 6.6 102550 76
2003-02-24 10:12 51°12.389 2°39.3 7.9 196 6.6 102550 76
2003-02-24 10:13 51°12.53 2°39.561 7.4 196 6.7 102550 76
2003-02-24 10:14 51°12.67 2°39.82 6.8 190 6.8 102550 76
2003-02-24 10:15 51°12.808 2°40.08 7.4 195 6.9 102550 75
2003-02-24 10:16 51°12.947 2°40.34 7.4 199 6.9 102550 75
2003-02-24 10:17 51°13.091 2°40.592 7.1 200 6.8 102550 75
2003-02-24 10:18 51°13.242 2°40.835 6.7 196 6.7 102550 76
2003-02-24 10:19 51°13.395 2°41.078 6.8 196 6.8 102550 76
2003-02-24 10:20 51°13.548 2°41.322 7.1 201 6.8 102550 75
2003-02-24 10:21 51°13.702 2°41.562 6.9 201 6.8 102550 75
2003-02-24 10:22 51°13.821 2°41.749 4.8 177 6.8 102560 75
2003-02-24 10:23 51°13.884 2°41.845 3.7 160 6.8 102570 75
2003-02-24 10:24 51°13.929 2°41.902 3.5 146 6.8 102570 75
2003-02-24 10:25 51°13.97 2°41.941 3.3 139 6.8 102570 75
2003-02-24 10:26 51°13.993 2°41.945 3.3 115 6.8 102570 75
2003-02-24 10:27 51°14.004 2°41.933 3.5 120 6.9 102570 75
2003-02-24 10:28 51°14.014 2°41.922 3.3 123 7 102570 75
2003-02-24 10:29 51°14.022 2°41.909 3.4 126 7.1 102570 74
2003-02-24 10:30 51°14.028 2°41.895 3.2 126 7.2 102570 74
2003-02-24 10:31 51°14.034 2°41.881 2.8 127 7.2 102570 74
2003-02-24 10:32 51°14.051 2°41.899 3.3 159 7.3 102570 73
2003-02-24 10:33 51°14.063 2°41.963 3.8 181 7.2 102560 73
2003-02-24 10:34 51°14.052 2°42.043 4.5 198 7.2 102560 73
2003-02-24 10:35 51°14.009 2°42.099 5.4 218 7.3 102560 73
2003-02-24 10:36 51°13.949 2°42.106 5.1 236 7.4 102560 72
2003-02-24 10:37 51°13.887 2°42.065 5.2 253 7.5 102560 72
2003-02-24 10:38 51°13.834 2°41.992 4.9 263 7.7 102560 72
2003-02-24 10:39 51°13.785 2°41.912 4.6 263 7.8 102560 71
2003-02-24 10:40 51°13.739 2°41.831 4.9 264 7.9 102560 71
2003-02-24 10:41 51°13.691 2°41.754 4.9 263 8 102560 70
2003-02-24 10:42 51°13.643 2°41.674 4.7 272 8 102560 70
2003-02-24 10:43 51°13.595 2°41.583 4.4 274 8.1 102560 70
2003-02-24 10:44 51°13.555 2°41.479 4 284 8.2 102560 70
2003-02-24 10:45 51°13.527 2°41.366 3 294 8.2 102560 69
2003-02-24 10:46 51°13.514 2°41.251 2 289 8.3 102560 69
2003-02-24 10:47 51°13.508 2°41.136 2.3 295 8.3 102560 69
2003-02-24 10:48 51°13.503 2°41.021 2.5 307 8.3 102560 69
2003-02-24 10:49 51°13.497 2°40.906 2.2 309 8.4 102560 69
2003-02-24 10:50 51°13.5 2°40.792 0.4 337 8.4 102550 69
2003-02-24 10:51 51°13.516 2°40.686 2.1 359 8.3 102560 69
2003-02-24 10:52 51°13.543 2°40.589 1.7 21 8.3 102560 69
2003-02-24 10:53 51°13.573 2°40.496 1.9 23 8.4 102560 69
2003-02-24 10:54 51°13.599 2°40.397 1.9 7 8.6 102560 69
2003-02-24 10:55 51°13.629 2°40.301 1.8 24 8.7 102560 68
2003-02-24 10:56 51°13.668 2°40.221 1.1 63 8.7 102560 68
2003-02-24 10:57 51°13.72 2°40.16 1.1 110 8.7 102560 67
2003-02-24 10:58 51°13.781 2°40.129 2.1 128 8.5 102560 67
2003-02-24 10:59 51°13.839 2°40.13 3 139 8.2 102560 69
2003-02-24 11:00 51°13.886 2°40.157 3.3 159 8.1 102550 69
2003-02-24 11:01 51°13.922 2°40.209 4.1 176 8 102550 70
2003-02-24 11:02 51°13.942 2°40.29 4.2 195 7.9 102550 70
2003-02-24 11:03 51°13.947 2°40.367 4.2 205 7.8 102550 71
2003-02-24 11:04 51°13.947 2°40.442 4.7 192 7.8 102550 71
2003-02-24 11:05 51°13.938 2°40.517 5.6 199 7.9 102540 71
2003-02-24 11:06 51°13.908 2°40.561 4.9 227 8.1 102550 70
2003-02-24 11:07 51°13.869 2°40.565 4.6 237 8.2 102550 69
2003-02-24 11:08 51°13.834 2°40.555 4.4 229 8.4 102550 69
2003-02-24 11:09 51°13.802 2°40.542 4.2 223 8.5 102550 68
2003-02-24 11:10 51°13.771 2°40.53 4.3 228 8.6 102550 68
2003-02-24 11:11 51°13.714 2°40.521 4.9 247 8.6 102550 68
2003-02-24 11:12 51°13.653 2°40.455 4 286 8.7 102550 68
2003-02-24 11:13 51°13.633 2°40.351 0.3 331 8.7 102550 67
2003-02-24 11:14 51°13.643 2°40.256 1.8 126 8.7 102550 67
2003-02-24 11:15 51°13.671 2°40.19 1.8 107 8.7 102550 67
2003-02-24 11:16 51°13.714 2°40.169 3.1 165 8.6 102540 67
2003-02-24 11:17 51°13.753 2°40.194 3.5 179 8.4 102540 68
2003-02-24 11:18 51°13.77 2°40.245 3.7 191 8.3 102540 69
2003-02-24 11:19 51°13.779 2°40.302 3.8 191 8.2 102530 69
2003-02-24 11:20 51°13.785 2°40.357 3.4 184 8.2 102530 69
2003-02-24 11:21 51°13.796 2°40.41 4 176 8.2 102540 69
2003-02-24 11:22 51°13.813 2°40.459 4.2 174 8.2 102530 69
2003-02-24 11:23 51°13.833 2°40.507 3.9 178 8.1 102530 70
2003-02-24 11:24 51°13.847 2°40.559 4 179 8.1 102530 70
2003-02-24 11:25 51°13.851 2°40.615 4.1 182 8.2 102530 70
2003-02-24 11:26 51°13.846 2°40.672 3.9 184 8.4 102530 70
2003-02-24 11:27 51°13.836 2°40.729 4 187 8.7 102520 67
2003-02-24 11:28 51°13.831 2°40.787 3.7 183 8.6 102520 68
2003-02-24 11:29 51°13.833 2°40.845 3.6 181 8.5 102530 68
2003-02-24 11:30 51°13.839 2°40.898 3.6 175 8.5 102530 68
2003-02-24 11:31 51°13.844 2°40.948 3.8 178 8.5 102530 69
2003-02-24 11:32 51°13.846 2°41.001 3.8 178 8.6 102520 68
2003-02-24 11:33 51°13.847 2°41.052 4 178 8.5 102520 68
2003-02-24 11:34 51°13.853 2°41.101 4.1 163 8.6 102520 68
2003-02-24 11:35 51°13.867 2°41.148 4 162 8.6 102530 68
2003-02-24 11:36 51°13.878 2°41.195 4.3 170 8.7 102520 67
2003-02-24 11:37 51°13.885 2°41.246 4.8 172 8.8 102520 67
2003-02-24 11:38 51°13.886 2°41.298 3.6 184 8.8 102520 67
2003-02-24 11:39 51°13.882 2°41.352 4.2 189 8.9 102520 66
2003-02-24 11:40 51°13.876 2°41.405 4.5 177 8.8 102520 66
2003-02-24 11:41 51°13.871 2°41.459 3.6 185 8.9 102520 66
2003-02-24 11:42 51°13.851 2°41.51 5 199 9 102520 66
2003-02-24 11:43 51°13.815 2°41.536 4.5 215 9.1 102510 65
2003-02-24 11:44 51°13.78 2°41.537 4.3 219 9.2 102510 64
2003-02-24 11:45 51°13.747 2°41.522 3.8 234 9.2 102520 64
2003-02-24 11:46 51°13.71 2°41.499 4.6 239 9.2 102520 64
2003-02-24 11:47 51°13.657 2°41.419 4.5 288 9.2 102510 64
2003-02-24 11:48 51°13.669 2°41.282 1.4 21 9.3 102510 64
2003-02-24 11:49 51°13.743 2°41.276 4.1 199 9.3 102510 64
2003-02-24 11:50 51°13.904 2°41.421 6.6 218 9.1 102500 65
2003-02-24 11:51 51°14.078 2°41.608 6.5 207 9.1 102500 65
2003-02-24 11:52 51°14.254 2°41.795 6 210 9.1 102500 65
2003-02-24 11:53 51°14.436 2°41.967 6.4 211 9.2 102500 65
2003-02-24 11:54 51°14.619 2°42.139 6.9 214 9 102500 65
2003-02-24 11:55 51°14.802 2°42.311 5.9 208 8.8 102500 66
2003-02-24 11:56 51°14.983 2°42.487 5.8 204 8.9 102500 66
2003-02-24 11:57 51°15.165 2°42.662 5.9 213 8.9 102500 66
2003-02-24 11:58 51°15.346 2°42.838 6.4 213 8.8 102500 66
2003-02-24 11:59 51°15.523 2°43.016 8 215 8.7 102490 67
2003-02-24 12:00 51°15.706 2°43.185 6.8 205 8.4 102490 68
2003-02-24 12:01 51°15.891 2°43.353 6.8 204 8.5 102490 68
2003-02-24 12:02 51°16.077 2°43.525 6.9 208 8.5 102490 68
2003-02-24 12:03 51°16.263 2°43.698 6.9 214 8.6 102490 67
2003-02-24 12:04 51°16.448 2°43.871 6.5 210 8.5 102490 68
2003-02-24 12:05 51°16.633 2°44.04 7.1 215 8.6 102490 68
2003-02-24 12:06 51°16.817 2°44.204 7.1 213 8.5 102490 68
2003-02-24 12:07 51°17 2°44.365 6.6 209 8.3 102490 69
2003-02-24 12:08 51°17.182 2°44.525 7 211 8.2 102480 70
2003-02-24 12:09 51°17.364 2°44.685 6.9 214 8.3 102490 69
2003-02-24 12:10 51°17.55 2°44.844 7.3 216 8.3 102480 70
2003-02-24 12:11 51°17.72 2°44.926 5.1 210 8.3 102490 69
2003-02-24 12:12 51°17.824 2°44.976 3.1 195 8.3 102490 69
2003-02-24 12:13 51°17.893 2°45 3.4 199 8.2 102490 69
2003-02-24 12:14 51°17.934 2°45.062 2.6 185 8.2 102490 69
2003-02-24 12:15 51°17.968 2°45.071 2.2 124 8.3 102490 69
2003-02-24 12:16 51°17.978 2°45.035 1.7 98 8.3 102500 69
2003-02-24 12:17 51°17.985 2°44.992 1.8 109 8.4 102500 69
2003-02-24 12:18 51°17.988 2°44.949 1.8 122 8.4 102490 68
2003-02-24 12:19 51°17.992 2°44.912 2.1 125 8.4 102500 68
2003-02-24 12:20 51°17.993 2°44.878 2.5 118 8.3 102490 69
2003-02-24 12:21 51°17.992 2°44.844 2.4 104 8.3 102490 69
2003-02-24 12:22 51°17.992 2°44.816 2.5 127 8.3 102490 69
2003-02-24 12:23 51°17.998 2°44.82 3.3 173 8.3 102490 69
2003-02-24 12:24 51°17.995 2°44.881 4.9 203 8.2 102480 69
2003-02-24 12:25 51°17.958 2°44.962 5.9 218 8.1 102480 69
2003-02-24 12:26 51°17.897 2°45.008 6.4 232 8.2 102480 69
2003-02-24 12:27 51°17.823 2°45.012 6.4 242 8.4 102480 68
2003-02-24 12:28 51°17.756 2°44.984 5.3 250 8.6 102480 67
2003-02-24 12:29 51°17.692 2°44.935 6.3 260 8.6 102480 68
2003-02-24 12:30 51°17.636 2°44.873 5.9 264 8.8 102470 67
2003-02-24 12:31 51°17.579 2°44.801 5.8 269 9.3 102470 66
2003-02-24 12:32 51°17.527 2°44.727 5.6 273 9.6 102470 63
2003-02-24 12:33 51°17.477 2°44.651 5.3 273 10 102470 61
2003-02-24 12:34 51°17.426 2°44.577 5.1 271 10.2 102470 60
2003-02-24 12:35 51°17.374 2°44.505 5.2 275 10.2 102460 60
2003-02-24 12:36 51°17.319 2°44.434 4.9 277 10.1 102470 60
2003-02-24 12:37 51°17.265 2°44.369 4.8 277 10 102460 60
2003-02-24 12:38 51°17.211 2°44.3 4.5 284 9.9 102460 61
2003-02-24 12:39 51°17.158 2°44.228 4.9 292 9.8 102460 61
2003-02-24 12:40 51°17.108 2°44.149 4.6 293 9.8 102460 61
2003-02-24 12:41 51°17.058 2°44.067 5 301 9.7 102460 61
2003-02-24 12:42 51°17.01 2°43.985 5 292 9.7 102450 61
2003-02-24 12:43 51°16.959 2°43.909 5.4 289 9.8 102460 62
2003-02-24 12:44 51°16.907 2°43.841 5.1 284 9.9 102460 61
2003-02-24 12:45 51°16.854 2°43.773 5.1 288 9.9 102450 61
2003-02-24 12:46 51°16.8 2°43.696 5.4 293 10 102450 60
2003-02-24 12:47 51°16.746 2°43.619 5.7 279 10.1 102450 60
2003-02-24 12:48 51°16.688 2°43.552 6 278 10.3 102450 59
2003-02-24 12:49 51°16.628 2°43.49 5.8 281 10.3 102450 59
2003-02-24 12:50 51°16.572 2°43.436 5.7 271 10.3 102450 59
2003-02-24 12:51 51°16.515 2°43.392 6 267 10.3 102440 59
2003-02-24 12:52 51°16.456 2°43.354 5.6 264 10.4 102440 59
2003-02-24 12:53 51°16.395 2°43.321 6.1 261 10.6 102440 59
2003-02-24 12:54 51°16.333 2°43.295 5.8 254 10.8 102440 58
2003-02-24 12:55 51°16.272 2°43.275 6.4 248 10.8 102440 65
2003-02-24 12:56 51°16.209 2°43.256 5.7 258 10.8 102440 58
2003-02-24 12:57 51°16.151 2°43.221 5.7 279 10.9 102440 57
2003-02-24 12:58 51°16.098 2°43.169 5.3 291 10.9 102440 57
2003-02-24 12:59 51°16.051 2°43.106 2.6 324 10.8 102440 57
2003-02-24 13:00 51°16.021 2°43.016 3.2 4 10.7 102440 57
2003-02-24 13:01 51°16.037 2°42.92 2.7 100 10.7 102440 58
2003-02-24 13:02 51°16.081 2°42.915 4.4 156 10.6 102450 57
2003-02-24 13:03 51°16.129 2°42.949 4.6 160 10.2 102440 59
2003-02-24 13:04 51°16.173 2°42.99 4.7 169 10 102440 59
2003-02-24 13:05 51°16.222 2°43.02 4 160 9.5 102440 62
2003-02-24 13:06 51°16.267 2°43.057 4.9 166 9.1 102440 64
2003-02-24 13:07 51°16.312 2°43.097 4.6 172 9 102440 64
2003-02-24 13:08 51°16.359 2°43.133 4.8 177 8.8 102440 65
2003-02-24 13:09 51°16.404 2°43.169 4 186 8.5 102440 66
2003-02-24 13:10 51°16.448 2°43.205 4.7 178 8.4 102430 67
2003-02-24 13:11 51°16.494 2°43.242 4.1 176 8.4 102430 66
2003-02-24 13:12 51°16.538 2°43.28 3.9 180 8.5 102430 66
2003-02-24 13:13 51°16.585 2°43.313 3.8 186 8.5 102430 66
2003-02-24 13:14 51°16.627 2°43.355 4.7 191 8.5 102430 66
2003-02-24 13:15 51°16.67 2°43.394 4.8 196 8.5 102430 66
2003-02-24 13:16 51°16.711 2°43.433 4.6 190 8.4 102430 67
2003-02-24 13:17 51°16.748 2°43.48 4.8 191 8.5 102430 66
2003-02-24 13:18 51°16.788 2°43.519 4.8 177 8.7 102430 65
2003-02-24 13:19 51°16.836 2°43.54 4.7 175 8.9 102430 64
2003-02-24 13:20 51°16.879 2°43.574 4.2 185 9 102430 64
2003-02-24 13:21 51°16.921 2°43.611 4.6 175 9.2 102430 63
2003-02-24 13:22 51°16.964 2°43.646 4 183 9.4 102430 62
2003-02-24 13:23 51°17.003 2°43.691 4 182 9.3 102420 62
2003-02-24 13:24 51°17.047 2°43.722 3.7 172 9.3 102420 62
2003-02-24 13:25 51°17.092 2°43.751 3.6 179 9.4 102420 62
2003-02-24 13:26 51°17.134 2°43.79 4.1 190 9.3 102410 62
2003-02-24 13:27 51°17.177 2°43.825 4.3 190 9.1 102410 63
2003-02-24 13:28 51°17.217 2°43.867 4.1 189 9.1 102410 64
2003-02-24 13:29 51°17.259 2°43.903 5.2 201 9.3 102410 63
2003-02-24 13:30 51°17.301 2°43.939 4.5 196 9.1 102410 64
2003-02-24 13:31 51°17.343 2°43.976 3.9 186 9 102410 64
2003-02-24 13:32 51°17.389 2°44.004 2.6 184 8.8 102410 65
2003-02-24 13:33 51°17.433 2°44.038 4.2 191 8.9 102410 64
2003-02-24 13:34 51°17.46 2°44.089 5.1 202 9 102400 64
2003-02-24 13:35 51°17.461 2°44.123 4.6 209 8.9 102410 64
2003-02-24 13:36 51°17.452 2°44.145 4.4 215 8.9 102410 65
2003-02-24 13:37 51°17.447 2°44.214 8.1 218 8.7 102410 65
2003-02-24 13:38 51°17.488 2°44.497 10.9 221 8.6 102390 66
2003-02-24 13:39 51°17.534 2°44.81 10.9 221 8.3 102390 67
2003-02-24 13:40 51°17.581 2°45.128 10.9 222 8 102390 69
2003-02-24 13:41 51°17.628 2°45.447 10.5 218 7.8 102390 70
2003-02-24 13:42 51°17.675 2°45.766 10.5 221 7.9 102380 69
2003-02-24 13:43 51°17.721 2°46.086 11.9 220 8 102380 68
2003-02-24 13:44 51°17.769 2°46.406 11.7 217 8.2 102370 67
2003-02-24 13:45 51°17.819 2°46.727 11.3 216 8.5 102370 66
2003-02-24 13:46 51°17.869 2°47.049 11.3 221 8.9 102380 64
2003-02-24 13:47 51°17.919 2°47.372 11 223 9.2 102380 63
2003-02-24 13:48 51°17.969 2°47.7 10.9 221 9 102380 64
2003-02-24 13:49 51°18.019 2°48.024 10.6 220 9.1 102380 64
2003-02-24 13:50 51°18.069 2°48.346 10.7 218 9.6 102380 61
2003-02-24 13:51 51°18.119 2°48.668 10.5 219 9.6 102370 61
2003-02-24 13:52 51°18.169 2°48.987 10.7 220 9.6 102380 61
2003-02-24 13:53 51°18.217 2°49.306 11.6 220 9.4 102370 62
2003-02-24 13:54 51°18.265 2°49.624 11 217 9.1 102370 63
2003-02-24 13:55 51°18.313 2°49.94 11.5 217 9.2 102370 63
2003-02-24 13:56 51°18.36 2°50.255 11.4 224 9.5 102370 61
2003-02-24 13:57 51°18.451 2°50.534 10.1 219 9.8 102360 61
2003-02-24 13:58 51°18.499 2°50.769 8.3 225 10.1 102380 59
2003-02-24 13:59 51°18.532 2°50.896 6.2 219 10.2 102380 59
2003-02-24 14:00 51°18.54 2°50.968 5.4 227 10.3 102390 59
2003-02-24 14:01 51°18.522 2°50.991 4.2 248 10.3 102390 59
2003-02-24 14:02 51°18.495 2°50.989 3.9 286 10.2 102390 59
2003-02-24 14:03 51°18.465 2°50.978 4.1 282 10 102380 60
2003-02-24 14:04 51°18.438 2°50.965 3.8 273 9.8 102390 61
2003-02-24 14:05 51°18.409 2°50.957 3.7 275 9.8 102390 62
2003-02-24 14:06 51°18.378 2°50.955 4.2 272 9.5 102390 62
2003-02-24 14:07 51°18.346 2°50.959 4.8 270 9.3 102390 64
2003-02-24 14:08 51°18.316 2°50.967 4.1 268 9.1 102380 64
2003-02-24 14:09 51°18.262 2°50.979 4.2 301 9.1 102380 65
2003-02-24 14:10 51°18.187 2°50.914 2 3 9.1 102380 64
2003-02-24 14:11 51°18.15 2°50.797 1.9 68 9.2 102390 64
2003-02-24 14:12 51°18.152 2°50.689 3.2 127 9.2 102380 63
2003-02-24 14:13 51°18.187 2°50.613 4.9 174 8.7 102380 66
2003-02-24 14:14 51°18.235 2°50.604 5.7 198 8.5 102370 67
2003-02-24 14:15 51°18.284 2°50.64 5.8 203 8.4 102370 67
2003-02-24 14:16 51°18.329 2°50.669 5.7 207 8.7 102370 65
2003-02-24 14:17 51°18.371 2°50.702 6.6 205 9 102360 64
2003-02-24 14:18 51°18.416 2°50.729 6 207 9 102370 63
2003-02-24 14:19 51°18.459 2°50.761 6.3 211 8.9 102370 64
2003-02-24 14:20 51°18.5 2°50.798 5.8 205 8.7 102370 66
2003-02-24 14:21 51°18.546 2°50.816 5.9 200 8.4 102370 67
2003-02-24 14:22 51°18.596 2°50.827 6.1 203 8.1 102360 69
2003-02-24 14:23 51°18.642 2°50.852 6.4 209 8 102360 70
2003-02-24 14:24 51°18.682 2°50.889 6.4 206 7.9 102360 71
2003-02-24 14:25 51°18.725 2°50.925 6.5 204 7.9 102360 70
2003-02-24 14:26 51°18.768 2°50.955 6.2 203 7.9 102360 71
2003-02-24 14:27 51°18.813 2°50.986 6.3 208 8 102360 70
2003-02-24 14:28 51°18.854 2°51.026 6 213 8 102360 70
2003-02-24 14:29 51°18.892 2°51.072 6.3 219 7.9 102360 71
2003-02-24 14:30 51°18.932 2°51.118 6.4 216 7.9 102360 71
2003-02-24 14:31 51°18.973 2°51.161 6.5 212 8 102360 70
2003-02-24 14:32 51°19.016 2°51.204 6 209 7.9 102360 71
2003-02-24 14:33 51°19.058 2°51.245 7 215 7.8 102360 71
2003-02-24 14:34 51°19.101 2°51.285 7.5 215 7.6 102350 72
2003-02-24 14:35 51°19.144 2°51.327 7.4 211 7.3 102350 73
2003-02-24 14:36 51°19.186 2°51.368 7.9 216 7.1 102350 75
2003-02-24 14:37 51°19.228 2°51.411 6.9 210 7.1 102350 75
2003-02-24 14:38 51°19.27 2°51.457 7.5 210 7.1 102340 75
2003-02-24 14:39 51°19.31 2°51.503 7.3 214 7.1 102340 75
2003-02-24 14:40 51°19.346 2°51.559 7.9 223 7.1 102340 75
2003-02-24 14:41 51°19.356 2°51.606 6.7 239 7.1 102350 75
2003-02-24 14:42 51°19.349 2°51.629 7 245 7 102350 75
2003-02-24 14:43 51°19.339 2°51.639 5.7 233 7 102350 75
2003-02-24 14:44 51°19.338 2°51.656 7 224 7 102350 75
2003-02-24 14:45 51°19.351 2°51.709 7.6 225 7 102340 75
2003-02-24 14:46 51°19.371 2°51.768 7.3 212 6.9 102340 75
2003-02-24 14:47 51°19.411 2°51.791 5.7 183 6.8 102340 76
2003-02-24 14:48 51°19.463 2°51.786 5.2 190 6.8 102350 76
2003-02-24 14:49 51°19.513 2°51.796 6 196 6.7 102340 77
2003-02-24 14:50 51°19.563 2°51.812 6.3 190 6.6 102340 77
2003-02-24 14:51 51°19.615 2°51.822 7.4 191 6.5 102340 77
2003-02-24 14:52 51°19.665 2°51.833 7.3 191 6.5 102340 78
2003-02-24 14:53 51°19.716 2°51.851 8.4 200 6.5 102330 78
2003-02-24 14:54 51°19.763 2°51.875 7.7 198 6.6 102330 78
2003-02-24 14:55 51°19.813 2°51.889 7.3 189 6.6 102330 78
2003-02-24 14:56 51°19.866 2°51.895 7.1 196 6.6 102330 77
2003-02-24 14:57 51°19.904 2°51.934 8.7 230 6.6 102330 78
2003-02-24 14:58 51°19.897 2°52.011 8.3 262 6.6 102340 78
2003-02-24 14:59 51°19.835 2°52.054 5.5 305 6.6 102330 78
2003-02-24 15:00 51°19.758 2°52.021 1.3 337 6.6 102340 77
2003-02-24 15:01 51°19.691 2°51.951 4 354 6.5 102340 77
2003-02-24 15:02 51°19.63 2°51.877 4.6 359 6.4 102340 78
2003-02-24 15:03 51°19.575 2°51.799 4.7 358 6.4 102340 78
2003-02-24 15:04 51°19.517 2°51.719 5.1 359 6.4 102330 78
2003-02-24 15:05 51°19.459 2°51.642 5   6.4 102330 78
2003-02-24 15:06 51°19.401 2°51.565 4.7 356 6.5 102330 78
2003-02-24 15:07 51°19.342 2°51.497 3.7 354 6.5 102330 78
2003-02-24 15:08 51°19.282 2°51.44 2.6 336 6.5 102330 77
2003-02-24 15:09 51°19.224 2°51.39 2.3 330 6.5 102330 77
2003-02-24 15:10 51°19.162 2°51.332 2.4 341 6.4 102330 77
2003-02-24 15:11 51°19.101 2°51.268 3.8 351 6.4 102330 77
2003-02-24 15:12 51°19.04 2°51.202 4.1 346 6.5 102320 77
2003-02-24 15:13 51°18.978 2°51.137 3.9 358 6.5 102320 77
2003-02-24 15:14 51°18.918 2°51.072 2.5 358 6.5 102320 77
2003-02-24 15:15 51°18.857 2°51 4.5 353 6.5 102320 77
2003-02-24 15:16 51°18.805 2°50.919 4.2 18 6.5 102320 76
2003-02-24 15:17 51°18.766 2°50.83 4 43 6.6 102320 76
2003-02-24 15:18 51°18.737 2°50.741 4.5 41 6.8 102320 77
2003-02-24 15:19 51°18.71 2°50.658 5.1 32 7 102320 77
2003-02-24 15:20 51°18.636 2°50.579 5.9 300 7 102310 74
2003-02-24 15:21 51°18.511 2°50.667 10.9 263 6.9 102300 74
2003-02-24 15:22 51°18.37 2°50.86 11.8 260 6.8 102290 74
2003-02-24 15:23 51°18.221 2°51.07 12.5 259 6.7 102290 75
2003-02-24 15:24 51°18.059 2°51.3 12.3 259 6.7 102290 75
2003-02-24 15:25 51°17.9 2°51.529 11.8 258 6.6 102290 75
2003-02-24 15:26 51°17.743 2°51.757 11.5 258 6.6 102280 75
2003-02-24 15:27 51°17.55 2°51.949 10.7 262 6.7 102290 75
2003-02-24 15:28 51°17.332 2°52.101 10.8 256 6.8 102290 74
2003-02-24 15:29 51°17.121 2°52.265 10.4 255 7 102290 73
2003-02-24 15:30 51°16.906 2°52.432 10.5 252 7.1 102290 71
2003-02-24 15:31 51°16.689 2°52.595 10.5 249 7.4 102290 70
2003-02-24 15:32 51°16.469 2°52.763 12 246 7.5 102300 69
2003-02-24 15:33 51°16.255 2°52.929 13.4 243 7.7 102300 69
2003-02-24 15:34 51°16.044 2°53.095 13.4 242 8.3 102290 66
2003-02-24 15:35 51°15.841 2°53.256 12.8 240 9 102290 62
2003-02-24 15:36 51°15.63 2°53.419 13.3 240 9.4 102280 59
2003-02-24 15:37 51°15.422 2°53.58 13.4 241 10.1 102280 57
2003-02-24 15:38 51°15.217 2°53.751 13.4 243 10.4 102280 55